Fountain Hill, AR (71642)

2:25 PM CST on March 04, 2015 (GMT -0600)
Hwy 172 | Change Station
CLOSE
Current Station
Personal Weather Station
Location: Monticello, AR
Elevation: 246 ft
Nearby Weather Stations
Active Advisory: Winter Storm Warning

Elev 246 ft 33.55 °N, 91.82 °W | Updated 10 minutes ago

Rain
Rain
43.7 °F
Feels Like 44 °F
N
0.0
Wind Variable Wind from South
Gusts 0.0 mph

Today
High -- | Low -- °F
--% Chance of Precip.
Yesterday
High -- | Low -- °F
Precip. -- in
6:32 AM 6:06 PM
Waxing Gibbous, 99% visible
Pressure 29.95 in
Visibility 2.5 miles
Clouds Overcast 800 ft
Windchill 44 °F
Dew Point 35 °F
Humidity 70%
Rainfall 0.17 in
Snow Depth Not available.
UV 2 out of 12
Pollen 4.60 out of 12
Air Quality Not available.
Flu Activity Not available.
SPECI KLLQ 042018Z AUTO 03009G16KT 340V050 2 1/2SM RA BR OVC008 06/04 A2995 RMK AO2 VIS 1 1/2V5 CIG 006V012 P0005 T00560044

More Conditions Fewer Conditions

Pressure 29.95 in
Visibility 2.5 miles
Clouds Overcast 800 ft
Windchill 44 °F
Dew Point 35 °F
Humidity 70%
Rainfall 0.17 in
Snow Depth Not available.
UV 2 out of 12
Pollen 4.60 out of 12
Air Quality Not available.
Flu Activity Not available.
SPECI KLLQ 042018Z AUTO 03009G16KT 340V050 2 1/2SM RA BR OVC008 06/04 A2995 RMK AO2 VIS 1 1/2V5 CIG 006V012 P0005 T00560044

More Conditions Fewer Conditions

10-Day Weather Forecast

Almanac

Astronomy

Mar. 04, 2015 Rise Set
Actual Time
Civil Twilight
Nautical Twilight
Astronomical Twilight
Moon
Length of Visible Light
Length of Day
Tomorrow will be .
, % of the Moon is Illuminated

Today's Extremes

State Highs State Lows

Community

WunderPhotos

Upload Photos

1,802,575 photos uploaded!

WunderBlogs® & News

Nearby

Air Quality

  Air Quality AQ Index Pollutant
Not available.

Snow Depth

Station Depth Elevation

Earthquake Activity

City Distance Mag. Time & Date
Minimum magnitude displayed is 2.5.

Coastal Water Temperatures

Place Temperature

Nearby Weather Stations

Winter Storm Warning
Statement as of 11:29 AM CST on March 04, 2015

... Winter Storm Warning remains in effect from 6 PM this evening
to noon CST Thursday...

A Winter Storm Warning remains in effect from 6 PM this evening
to noon CST Thursday.

* Timing: beginning after sunset and continuing through Thursday
morning.

* Accumulation: around one quarter inch of ice accumulation with
additional accumulation of sleet or snow up to one inch.

* Impacts: hazardous travel conditions are likely with power
outages possible.

Precautionary/preparedness actions...

A Winter Storm Warning means significant amounts of snow...
sleet... and ice are expected or occurring. Strong winds are also
possible. This will make travel very hazardous or impossible.